Main page
METAR-TAF:

METAR-TAF

Airports :

Wick Airport

Wick, Scotland

latitude: 58-27N, longitude: 003-05W, elevation: 39 m

Current weather observation

The report was made 43 minutes ago, at 15:50 UTC
Wind 12 kt from the South/Southwest
Temperature 7°C
Humidity 87%
Pressure 1002 hPa
Visibility 10 km or more

METAR: EGPC 251550Z AUTO 21012KT 9999 NCD 07/05 Q1002

Time: 16:33 (16:33 UTC)

Forecast

The report was made 2 hours and 39 minutes ago, at 13:54 UTC
Forecast valid from 25 at 15 UTC to 25 at 24 UTC
Wind 12 kt from the South/Southwest
Visibility 10 km or more
Few clouds at a height of 1600 ft
Scattered clouds at a height of 3500 ft
Probability 40% :
Temporary
from 25 at 15 UTC to 25 at 24 UTC
Wind 18 kt from the South/Southwest with gusts up to 28 kt

TAF: EGPC 251354Z 2515/2524 20012KT 9999 FEW016 SCT035 PROB40 TEMPO 2515/2524 21018G28KT

Weather observations and forecasts of more than 4000 airports (METAR and TAF reports).

The available stations are represented by yellow and red dots on the map.

Hover mouse over dot to see the name of the station.

Then click to see weather observations and forecasts.

To change the map : click on the green buttons with a black cross to zoom in, on the green button with a dash to zoom out, or on the green arrows for adjacent maps.


METAR-TAF: